SCIR

Robinson Crusoe Airport

Airport
ICAO code
SCIR
Summary
ICAO Region
CARSAM
ICAO Territory
Location

Isla Robinson Crusoe, Valparaiso

Serving
San Juan Bautista
Elevation
433 ft
Coordinates
33° 39' 54" S , 78° 55' 47" W
KCC
Metar
Observation
SCIR 041300Z 16016G26KT 7000 FEW015 19/16 Q1017
Station
ROBINSON CRUSOE
Date/Time
2023-02-04 13:00:00
Wind direction
160°
Wind speed
16 kts
Lowest cloud amount
few clouds
Temperature
19°C
Dew point
16°C
Humidity
82%
QNH
1017 hPa
Weather condition
n/a

Airport on the island of Robinson Crusoe, Chile.

Climatology

Temperate oceanic climate (Köppen climate classification Cfb)

Runways

Designator Length Width Surface Rops
14/32 860 18 ASP No/No

Airport map

Aerial View

SKYbrary Partners:

Safety knowledge contributed by: